createdAt,value
2023-08-29T00:02:23.331Z,15.14
2023-08-29T00:04:49.761Z,15.11
2023-08-29T00:07:16.205Z,15.06
2023-08-29T00:09:42.752Z,14.94
2023-08-29T00:12:09.361Z,14.95
2023-08-29T00:14:35.832Z,14.87
2023-08-29T00:17:02.234Z,14.84
2023-08-29T00:19:28.675Z,14.92
2023-08-29T00:21:55.065Z,14.91
2023-08-29T00:24:21.403Z,14.86
2023-08-29T00:26:47.801Z,14.79
2023-08-29T00:29:14.259Z,14.90
2023-08-29T00:31:40.737Z,14.75
2023-08-29T00:34:07.178Z,14.76
2023-08-29T00:36:33.558Z,14.65
2023-08-29T00:39:00.127Z,14.61
2023-08-29T00:41:26.505Z,14.62
2023-08-29T00:43:52.905Z,14.60
2023-08-29T00:46:20.640Z,14.70
2023-08-29T00:48:47.971Z,14.81
2023-08-29T00:51:14.422Z,14.74
2023-08-29T00:53:41.009Z,14.80
2023-08-29T00:56:07.408Z,14.69
2023-08-29T00:58:35.012Z,14.60
2023-08-29T01:01:01.514Z,14.65
2023-08-29T01:03:28.088Z,14.69
2023-08-29T01:05:54.601Z,14.70
2023-08-29T01:08:21.080Z,14.75
2023-08-29T01:11:17.210Z,14.80
2023-08-29T01:14:07.536Z,14.72
2023-08-29T01:16:41.511Z,14.77
2023-08-29T01:19:16.883Z,14.88
2023-08-29T01:21:50.258Z,14.75
2023-08-29T01:24:27.350Z,14.92
2023-08-29T01:26:55.873Z,14.83
2023-08-29T01:29:23.409Z,14.88
2023-08-29T01:31:51.414Z,14.83
2023-08-29T01:34:18.094Z,14.79
2023-08-29T01:36:44.740Z,14.79
2023-08-29T01:39:11.418Z,14.83
2023-08-29T01:41:37.805Z,14.83
2023-08-29T01:44:06.355Z,14.95
2023-08-29T01:46:32.911Z,14.97
2023-08-29T01:49:02.403Z,14.92
2023-08-29T01:51:29.224Z,14.89
2023-08-29T01:53:55.971Z,14.91
2023-08-29T01:56:25.381Z,15.03
2023-08-29T01:58:54.596Z,15.05
2023-08-29T02:01:23.842Z,14.94
2023-08-29T02:03:51.427Z,14.90
2023-08-29T02:06:17.888Z,14.90
2023-08-29T02:08:45.627Z,14.93
2023-08-29T02:11:12.057Z,15.00
2023-08-29T02:13:38.413Z,15.04
2023-08-29T02:16:05.014Z,14.91
2023-08-29T02:18:31.412Z,14.89
2023-08-29T02:20:57.785Z,14.83
2023-08-29T02:23:24.237Z,14.96
2023-08-29T02:26:04.871Z,14.93
2023-08-29T02:28:34.960Z,14.89
2023-08-29T02:31:10.948Z,14.81
2023-08-29T02:33:39.342Z,14.86
2023-08-29T02:36:06.570Z,14.94
2023-08-29T02:38:34.337Z,14.90
2023-08-29T02:41:01.019Z,14.76
2023-08-29T02:43:30.674Z,14.70
2023-08-29T02:45:58.304Z,14.82
2023-08-29T02:48:25.293Z,14.90
2023-08-29T02:50:52.142Z,14.87
2023-08-29T02:53:19.798Z,14.88
2023-08-29T02:55:46.695Z,14.88
2023-08-29T02:58:13.356Z,14.87
2023-08-29T03:00:39.854Z,14.89
2023-08-29T03:03:06.383Z,14.84
2023-08-29T03:05:33.532Z,14.85
2023-08-29T03:08:09.413Z,14.89
2023-08-29T03:10:37.080Z,14.93
2023-08-29T03:13:03.958Z,14.91
2023-08-29T03:15:34.419Z,14.85
2023-08-29T03:18:01.455Z,14.75
2023-08-29T03:20:28.250Z,14.75
2023-08-29T03:22:54.753Z,14.78
2023-08-29T03:25:23.253Z,14.74
2023-08-29T03:27:50.237Z,14.77
2023-08-29T03:30:16.949Z,14.84
2023-08-29T03:32:43.437Z,14.92
2023-08-29T03:35:09.825Z,14.83
2023-08-29T03:37:36.235Z,14.79
2023-08-29T03:40:03.990Z,14.81
2023-08-29T03:42:30.352Z,14.77
2023-08-29T03:44:56.858Z,14.76
2023-08-29T03:47:25.058Z,14.76
2023-08-29T03:49:51.517Z,14.87
2023-08-29T03:52:25.233Z,14.83
2023-08-29T03:54:56.709Z,14.70
2023-08-29T03:57:29.481Z,14.70
2023-08-29T03:59:56.650Z,14.81
2023-08-29T04:02:23.115Z,14.73
2023-08-29T04:04:52.471Z,14.66
2023-08-29T04:07:19.728Z,14.70
2023-08-29T04:09:46.184Z,14.72
2023-08-29T04:12:12.607Z,14.67
2023-08-29T04:14:38.946Z,14.58
2023-08-29T04:17:05.372Z,14.53
2023-08-29T04:19:31.811Z,14.56
2023-08-29T04:21:58.167Z,14.54
2023-08-29T04:24:26.717Z,14.53
2023-08-29T04:26:53.969Z,14.53
2023-08-29T04:29:20.384Z,14.54
2023-08-29T04:31:48.060Z,14.58
2023-08-29T04:34:14.488Z,14.54
2023-08-29T04:36:40.983Z,14.46
2023-08-29T04:39:07.352Z,14.74
2023-08-29T04:41:33.753Z,14.76
2023-08-29T04:44:00.426Z,14.55
2023-08-29T04:46:26.797Z,14.53
2023-08-29T04:48:53.178Z,14.62
2023-08-29T04:51:19.547Z,14.60
2023-08-29T04:53:48.062Z,14.63
2023-08-29T04:56:14.447Z,14.57
2023-08-29T04:58:40.824Z,14.53
2023-08-29T05:01:07.261Z,14.53
2023-08-29T05:03:33.859Z,14.67
2023-08-29T05:06:00.262Z,14.74
2023-08-29T05:08:26.671Z,14.72
2023-08-29T05:10:53.020Z,14.68
2023-08-29T05:13:19.412Z,14.72
2023-08-29T05:15:45.807Z,14.64
2023-08-29T05:18:12.315Z,14.66
2023-08-29T05:20:39.407Z,14.74
2023-08-29T05:23:06.074Z,14.74
2023-08-29T05:25:32.564Z,14.78
2023-08-29T05:27:58.960Z,14.81
2023-08-29T05:30:25.359Z,14.88
2023-08-29T05:32:51.785Z,14.93
2023-08-29T05:35:18.290Z,14.94
2023-08-29T05:37:45.432Z,15.01
2023-08-29T05:40:14.823Z,14.98
2023-08-29T05:42:41.231Z,15.07
2023-08-29T05:45:09.784Z,15.06
2023-08-29T05:47:36.273Z,15.11
2023-08-29T05:50:02.762Z,15.14
2023-08-29T05:52:29.542Z,15.17
2023-08-29T05:54:57.009Z,15.20
2023-08-29T05:57:23.390Z,15.33
2023-08-29T05:59:50.425Z,15.39
2023-08-29T06:02:16.848Z,15.38
2023-08-29T06:04:43.240Z,15.43
2023-08-29T06:07:10.486Z,15.53
2023-08-29T06:09:37.527Z,15.55
2023-08-29T06:12:04.230Z,15.54
2023-08-29T06:14:32.003Z,15.55
2023-08-29T06:16:58.872Z,15.65
2023-08-29T06:19:25.400Z,15.59
2023-08-29T06:21:52.219Z,15.70
2023-08-29T06:24:18.691Z,15.39
2023-08-29T06:26:45.047Z,15.55
2023-08-29T06:29:11.780Z,15.55
2023-08-29T06:31:38.187Z,15.66
2023-08-29T06:34:04.945Z,15.74
2023-08-29T06:36:32.077Z,16.10
2023-08-29T06:38:58.418Z,16.04
2023-08-29T06:41:25.492Z,16.00
2023-08-29T06:43:51.830Z,16.11
2023-08-29T06:46:18.534Z,16.03
2023-08-29T06:48:44.967Z,15.97
2023-08-29T06:51:11.373Z,16.06
2023-08-29T06:53:38.511Z,16.06
2023-08-29T06:56:05.300Z,16.31
2023-08-29T06:58:31.968Z,16.16
2023-08-29T07:00:58.372Z,16.31
2023-08-29T07:03:24.934Z,16.45
2023-08-29T07:05:51.460Z,16.42
2023-08-29T07:08:17.811Z,16.30
2023-08-29T07:10:44.389Z,16.26
2023-08-29T07:13:10.753Z,16.42
2023-08-29T07:15:37.177Z,16.56
2023-08-29T07:18:06.799Z,16.61
2023-08-29T07:20:34.725Z,16.40
2023-08-29T07:23:01.589Z,16.52
2023-08-29T07:25:42.284Z,16.49
2023-08-29T07:28:10.581Z,16.44
2023-08-29T07:30:47.733Z,16.61
2023-08-29T07:33:15.312Z,16.48
2023-08-29T07:35:43.355Z,16.59
2023-08-29T07:38:10.807Z,16.55
2023-08-29T07:40:37.653Z,16.62
2023-08-29T07:43:05.880Z,16.74
2023-08-29T07:45:33.131Z,16.66
2023-08-29T07:48:00.795Z,16.62
2023-08-29T07:50:28.459Z,16.75
2023-08-29T07:52:56.018Z,16.83
2023-08-29T07:55:22.467Z,16.61
2023-08-29T07:57:49.688Z,16.65
2023-08-29T08:00:17.418Z,16.78
2023-08-29T08:02:44.806Z,16.85
2023-08-29T08:05:16.282Z,17.11
2023-08-29T08:07:45.375Z,17.11
2023-08-29T08:10:13.682Z,17.24
2023-08-29T08:12:41.682Z,17.12
2023-08-29T08:15:09.609Z,17.21
2023-08-29T08:17:37.504Z,17.07
2023-08-29T08:20:09.516Z,17.35
2023-08-29T08:22:41.470Z,17.00
2023-08-29T08:25:11.686Z,17.05
2023-08-29T08:27:42.583Z,17.24
2023-08-29T08:30:12.324Z,17.28
2023-08-29T08:32:38.848Z,17.43
2023-08-29T08:35:08.679Z,17.57
2023-08-29T08:37:36.397Z,17.53
2023-08-29T08:40:11.743Z,17.48
2023-08-29T08:42:40.888Z,17.47
2023-08-29T08:45:08.590Z,17.58
2023-08-29T08:47:36.369Z,17.84
2023-08-29T08:50:04.232Z,17.95
2023-08-29T08:52:35.048Z,17.92
2023-08-29T08:55:05.694Z,17.95
2023-08-29T08:57:33.197Z,17.92
2023-08-29T08:59:59.592Z,17.52
2023-08-29T09:02:27.225Z,17.64
2023-08-29T09:04:54.858Z,17.66
2023-08-29T09:07:21.285Z,17.68
2023-08-29T09:10:11.630Z,17.63
2023-08-29T09:12:50.526Z,17.88
2023-08-29T09:15:21.195Z,17.95
2023-08-29T09:17:52.725Z,17.99
2023-08-29T09:20:20.007Z,18.03
2023-08-29T09:22:47.276Z,18.11
2023-08-29T09:25:15.615Z,18.11
2023-08-29T09:27:46.766Z,18.46
2023-08-29T09:30:15.411Z,17.97
2023-08-29T09:32:50.457Z,17.92
2023-08-29T09:35:20.638Z,18.12
2023-08-29T09:37:52.645Z,18.49
2023-08-29T09:40:36.259Z,18.24
2023-08-29T09:43:05.672Z,18.42
2023-08-29T09:45:33.939Z,18.42
2023-08-29T09:48:05.200Z,18.43
2023-08-29T09:50:32.416Z,18.52
2023-08-29T09:53:00.791Z,18.50
2023-08-29T09:55:27.816Z,18.58
2023-08-29T09:57:54.966Z,18.70
2023-08-29T10:00:22.189Z,18.58
2023-08-29T10:02:51.715Z,18.71
2023-08-29T10:05:25.098Z,18.88
2023-08-29T10:07:56.671Z,19.18
2023-08-29T10:10:25.153Z,19.40
2023-08-29T10:12:52.183Z,18.75
2023-08-29T10:15:19.685Z,19.16
2023-08-29T10:17:49.700Z,19.25
2023-08-29T10:20:18.365Z,19.20
2023-08-29T10:22:47.666Z,19.01
2023-08-29T10:25:19.709Z,19.05
2023-08-29T10:27:46.681Z,19.63
2023-08-29T10:30:13.477Z,19.30
2023-08-29T10:32:40.622Z,19.47
2023-08-29T10:35:08.690Z,20.28
2023-08-29T10:37:35.296Z,20.24
2023-08-29T10:40:12.922Z,19.88
2023-08-29T10:42:58.498Z,19.95
2023-08-29T10:45:58.185Z,20.03
2023-08-29T10:48:31.180Z,20.24
2023-08-29T10:51:18.371Z,20.57
2023-08-29T10:53:57.982Z,20.38
2023-08-29T10:56:28.881Z,19.90
2023-08-29T10:58:56.140Z,20.08
2023-08-29T11:01:25.336Z,20.14
2023-08-29T11:03:52.121Z,20.55
2023-08-29T11:06:20.831Z,20.35
2023-08-29T11:08:47.472Z,20.67
2023-08-29T11:11:19.806Z,20.94
2023-08-29T11:14:02.702Z,20.82
2023-08-29T11:16:31.601Z,21.18
2023-08-29T11:19:07.838Z,20.86
2023-08-29T11:21:34.445Z,21.05
2023-08-29T11:24:14.853Z,21.24
2023-08-29T11:26:45.841Z,21.16
2023-08-29T11:29:12.283Z,20.50
2023-08-29T11:31:44.045Z,20.73
2023-08-29T11:34:18.885Z,20.93
2023-08-29T11:36:50.355Z,20.89
2023-08-29T11:39:19.680Z,20.94
2023-08-29T11:42:05.315Z,21.02
2023-08-29T11:45:41.900Z,21.26
2023-08-29T11:47:22.787Z,21.37
2023-08-29T11:49:50.357Z,21.35
2023-08-29T11:52:17.906Z,21.76
2023-08-29T11:54:54.046Z,21.71
2023-08-29T11:57:21.835Z,21.64
2023-08-29T11:59:51.484Z,21.82
2023-08-29T12:02:20.509Z,21.62
2023-08-29T12:04:48.782Z,21.78
2023-08-29T12:07:19.277Z,22.10
2023-08-29T12:09:47.745Z,22.31
2023-08-29T12:12:34.731Z,21.85
2023-08-29T12:15:01.739Z,21.67
2023-08-29T12:17:39.900Z,21.70
2023-08-29T12:20:16.541Z,22.14
2023-08-29T12:22:49.058Z,21.82
2023-08-29T12:25:17.220Z,21.69
2023-08-29T12:27:45.587Z,21.50
2023-08-29T12:30:15.861Z,21.11
2023-08-29T12:32:43.913Z,21.32
2023-08-29T12:35:11.363Z,21.27
2023-08-29T12:37:38.775Z,22.05
2023-08-29T12:40:09.851Z,21.91
2023-08-29T12:42:38.777Z,21.37
2023-08-29T12:45:07.302Z,21.91
2023-08-29T12:47:33.802Z,21.36
2023-08-29T12:50:00.236Z,21.46
2023-08-29T12:52:26.717Z,21.16
2023-08-29T12:54:53.129Z,20.82
2023-08-29T12:57:20.784Z,21.59
2023-08-29T12:59:47.243Z,22.16
2023-08-29T13:02:13.660Z,22.70
2023-08-29T13:04:40.402Z,23.55
2023-08-29T13:07:06.894Z,23.38
2023-08-29T13:09:38.115Z,24.20
2023-08-29T13:12:07.487Z,23.94
2023-08-29T13:14:38.636Z,22.92
2023-08-29T13:17:06.433Z,22.23
2023-08-29T13:19:34.037Z,22.08
2023-08-29T13:22:02.400Z,22.56
2023-08-29T13:24:29.843Z,22.95
2023-08-29T13:26:56.352Z,22.73
2023-08-29T13:29:22.961Z,22.83
2023-08-29T13:31:51.025Z,23.60
2023-08-29T13:34:19.808Z,23.39
2023-08-29T13:36:46.417Z,23.64
2023-08-29T13:39:13.672Z,23.28
2023-08-29T13:41:40.974Z,23.64
2023-08-29T13:44:07.348Z,23.76
2023-08-29T13:46:33.752Z,24.56
2023-08-29T13:49:00.125Z,23.95
2023-08-29T13:51:26.515Z,23.30
2023-08-29T13:53:53.842Z,23.63
2023-08-29T13:56:20.212Z,23.11
2023-08-29T13:58:46.644Z,22.48
2023-08-29T14:01:14.922Z,22.84
2023-08-29T14:03:41.498Z,23.34
2023-08-29T14:06:08.192Z,22.23
2023-08-29T14:08:34.935Z,22.54
2023-08-29T14:11:06.412Z,22.21
2023-08-29T14:13:34.361Z,22.16
2023-08-29T14:16:04.260Z,22.31
2023-08-29T14:18:37.190Z,22.43
2023-08-29T14:21:03.949Z,22.44
2023-08-29T14:23:30.559Z,22.34
2023-08-29T14:25:57.678Z,22.82
2023-08-29T14:28:26.846Z,23.18
2023-08-29T14:30:53.904Z,23.35
2023-08-29T14:33:20.367Z,22.89
2023-08-29T14:35:46.814Z,22.69
2023-08-29T14:38:14.216Z,22.79
2023-08-29T14:40:40.829Z,23.15
2023-08-29T14:43:07.231Z,23.29
2023-08-29T14:45:37.656Z,22.11
2023-08-29T14:48:04.641Z,22.26
2023-08-29T14:50:31.414Z,22.35
2023-08-29T14:52:57.778Z,23.47
2023-08-29T14:55:25.933Z,23.36
2023-08-29T14:57:54.262Z,23.29
2023-08-29T15:00:21.026Z,22.80
2023-08-29T15:02:47.632Z,22.72
2023-08-29T15:05:14.522Z,23.10
2023-08-29T15:07:41.895Z,23.24
2023-08-29T15:10:09.257Z,23.33
2023-08-29T15:12:36.028Z,23.60
2023-08-29T15:15:02.499Z,23.94
2023-08-29T15:17:31.247Z,24.12
2023-08-29T15:19:58.268Z,23.67
2023-08-29T15:22:24.867Z,23.55
2023-08-29T15:24:51.333Z,24.29
2023-08-29T15:27:17.915Z,24.85
2023-08-29T15:29:44.367Z,24.61
2023-08-29T15:32:10.981Z,23.54
2023-08-29T15:34:37.564Z,23.07
2023-08-29T15:37:05.581Z,22.22
2023-08-29T15:39:33.682Z,22.40
2023-08-29T15:42:00.378Z,22.82
2023-08-29T15:44:31.081Z,22.73
2023-08-29T15:46:57.929Z,22.36
2023-08-29T15:49:24.276Z,22.17
2023-08-29T15:51:50.716Z,22.16
2023-08-29T15:54:18.987Z,21.59
2023-08-29T15:56:45.604Z,21.91
2023-08-29T15:59:12.081Z,21.93
2023-08-29T16:01:38.555Z,21.83
2023-08-29T16:04:05.968Z,22.20
2023-08-29T16:06:32.435Z,22.63
2023-08-29T16:09:01.005Z,22.28
2023-08-29T16:11:27.730Z,21.72
2023-08-29T16:13:54.282Z,22.04
2023-08-29T16:16:20.677Z,21.53
2023-08-29T16:18:47.292Z,21.75
2023-08-29T16:21:16.469Z,21.85
2023-08-29T16:23:46.284Z,21.68
2023-08-29T16:26:21.944Z,21.49
2023-08-29T16:28:49.085Z,21.07
2023-08-29T16:31:15.516Z,21.03
2023-08-29T16:33:42.082Z,21.04
2023-08-29T16:36:09.084Z,21.67
2023-08-29T16:38:35.663Z,21.46
2023-08-29T16:41:03.212Z,21.58
2023-08-29T16:43:29.695Z,21.30
2023-08-29T16:45:56.539Z,21.35
2023-08-29T16:48:22.958Z,21.07
2023-08-29T16:50:50.929Z,21.05
2023-08-29T16:53:19.030Z,20.99
2023-08-29T16:55:46.107Z,21.06
2023-08-29T16:58:13.032Z,20.94
2023-08-29T17:00:39.786Z,20.92
2023-08-29T17:03:11.099Z,20.70
2023-08-29T17:05:38.779Z,20.88
2023-08-29T17:08:08.873Z,20.71
2023-08-29T17:10:35.688Z,20.99
2023-08-29T17:13:02.230Z,20.73
2023-08-29T17:15:29.029Z,20.62
2023-08-29T17:17:55.506Z,20.58
2023-08-29T17:20:23.599Z,20.69
2023-08-29T17:22:50.462Z,20.55
2023-08-29T17:25:17.345Z,20.47
2023-08-29T17:27:43.936Z,20.53
2023-08-29T17:30:12.607Z,20.39
2023-08-29T17:32:39.340Z,20.34
2023-08-29T17:35:06.231Z,20.15
2023-08-29T17:37:34.502Z,20.14
2023-08-29T17:40:01.777Z,19.98
2023-08-29T17:42:28.190Z,20.02
2023-08-29T17:44:56.719Z,20.09
2023-08-29T17:47:23.268Z,19.90
2023-08-29T17:49:52.023Z,19.80
2023-08-29T17:52:18.498Z,19.70
2023-08-29T17:54:45.039Z,19.69
2023-08-29T17:57:11.597Z,19.63
2023-08-29T17:59:38.180Z,19.59
2023-08-29T18:02:05.276Z,19.55
2023-08-29T18:04:32.157Z,19.65
2023-08-29T18:06:58.589Z,19.53
2023-08-29T18:09:24.946Z,19.48
2023-08-29T18:11:51.364Z,19.36
2023-08-29T18:14:17.724Z,19.27
2023-08-29T18:16:45.238Z,19.15
2023-08-29T18:19:11.867Z,19.04
2023-08-29T18:21:39.080Z,18.93
2023-08-29T18:24:05.728Z,18.80
2023-08-29T18:26:32.907Z,18.97
2023-08-29T18:28:59.339Z,18.89
2023-08-29T18:31:25.702Z,18.80
2023-08-29T18:33:52.208Z,18.68
2023-08-29T18:36:18.563Z,18.54
2023-08-29T18:38:45.111Z,18.57
2023-08-29T18:41:11.502Z,18.58
2023-08-29T18:43:39.791Z,18.72
2023-08-29T18:46:08.146Z,18.47
2023-08-29T18:48:34.702Z,18.39
2023-08-29T18:51:01.138Z,18.25
2023-08-29T18:53:27.901Z,18.17
2023-08-29T18:55:54.386Z,18.08
2023-08-29T18:58:20.959Z,17.93
2023-08-29T19:00:47.442Z,18.00
2023-08-29T19:03:13.841Z,17.93
2023-08-29T19:05:41.082Z,17.86
2023-08-29T19:08:07.795Z,17.86
2023-08-29T19:10:34.562Z,17.68
2023-08-29T19:13:01.744Z,17.61
2023-08-29T19:15:28.211Z,17.61
2023-08-29T19:17:54.649Z,17.54
2023-08-29T19:20:21.158Z,17.69
2023-08-29T19:22:47.687Z,17.56
2023-08-29T19:25:14.148Z,17.45
2023-08-29T19:27:40.534Z,17.37
2023-08-29T19:30:09.802Z,17.29
2023-08-29T19:32:37.425Z,17.32
2023-08-29T19:35:05.046Z,17.40
2023-08-29T19:37:32.278Z,17.46
2023-08-29T19:39:58.685Z,17.47
2023-08-29T19:42:25.153Z,17.42
2023-08-29T19:44:52.094Z,17.60
2023-08-29T19:47:20.148Z,17.50
2023-08-29T19:49:48.406Z,17.64
2023-08-29T19:52:15.061Z,17.54
2023-08-29T19:54:42.061Z,17.70
2023-08-29T19:57:08.491Z,17.62
2023-08-29T19:59:36.355Z,17.52
2023-08-29T20:02:03.106Z,17.52
2023-08-29T20:04:29.621Z,17.50
2023-08-29T20:06:56.177Z,17.53
2023-08-29T20:09:23.626Z,17.32
2023-08-29T20:11:50.123Z,17.20
2023-08-29T20:14:16.545Z,17.18
2023-08-29T20:16:43.877Z,17.09
2023-08-29T20:19:10.659Z,16.94
2023-08-29T20:21:37.312Z,16.94
2023-08-29T20:24:04.614Z,16.93
2023-08-29T20:26:32.586Z,16.93
2023-08-29T20:29:00.701Z,16.99
2023-08-29T20:31:27.514Z,16.90
2023-08-29T20:33:54.150Z,16.92
2023-08-29T20:36:20.605Z,16.85
2023-08-29T20:38:47.102Z,16.93
2023-08-29T20:41:14.190Z,16.99
2023-08-29T20:43:40.704Z,17.02
2023-08-29T20:46:08.316Z,16.97
2023-08-29T20:48:35.072Z,16.91
2023-08-29T20:51:02.557Z,17.20
2023-08-29T20:53:31.939Z,17.06
2023-08-29T20:55:59.167Z,17.03
2023-08-29T20:58:27.186Z,17.01
2023-08-29T21:01:00.776Z,17.05
2023-08-29T21:03:29.100Z,16.98
2023-08-29T21:05:56.199Z,17.00
2023-08-29T21:08:24.110Z,17.01
2023-08-29T21:10:51.623Z,17.06
2023-08-29T21:13:18.132Z,16.95
2023-08-29T21:15:45.851Z,16.89
2023-08-29T21:18:16.397Z,16.89
2023-08-29T21:20:53.599Z,16.76
2023-08-29T21:23:20.006Z,16.81
2023-08-29T21:25:50.553Z,16.79
2023-08-29T21:28:18.122Z,16.85
2023-08-29T21:30:45.944Z,16.74
2023-08-29T21:33:13.229Z,16.81
2023-08-29T21:35:40.786Z,16.78
2023-08-29T21:38:08.485Z,16.85
2023-08-29T21:40:40.523Z,16.85
2023-08-29T21:43:11.731Z,16.70
2023-08-29T21:45:40.035Z,16.69
2023-08-29T21:48:08.211Z,16.80
2023-08-29T21:50:39.233Z,16.70
2023-08-29T21:53:10.592Z,16.69
2023-08-29T21:55:38.483Z,16.70
2023-08-29T21:58:06.347Z,16.71
2023-08-29T22:00:34.258Z,16.71
2023-08-29T22:03:02.266Z,16.67
2023-08-29T22:05:30.231Z,16.64
2023-08-29T22:07:57.392Z,16.60
2023-08-29T22:10:24.327Z,16.52
2023-08-29T22:12:51.280Z,16.56
2023-08-29T22:15:18.110Z,16.61
2023-08-29T22:17:46.137Z,16.58
2023-08-29T22:20:13.481Z,16.57
2023-08-29T22:22:40.421Z,16.51
2023-08-29T22:25:07.428Z,16.58
2023-08-29T22:27:33.918Z,16.56
2023-08-29T22:30:00.404Z,16.54
2023-08-29T22:32:26.967Z,16.50
2023-08-29T22:34:53.363Z,16.48
2023-08-29T22:37:19.847Z,16.44
2023-08-29T22:39:49.466Z,16.42
2023-08-29T22:42:16.961Z,16.38
2023-08-29T22:44:44.227Z,16.31
2023-08-29T22:47:11.441Z,16.41
2023-08-29T22:49:37.938Z,16.32
2023-08-29T22:52:04.823Z,16.31
2023-08-29T22:54:31.803Z,16.39
2023-08-29T22:56:59.096Z,16.44
2023-08-29T22:59:26.989Z,16.34
2023-08-29T23:01:54.340Z,16.31
2023-08-29T23:04:20.784Z,16.35
2023-08-29T23:06:47.173Z,16.39
2023-08-29T23:09:13.603Z,16.27
2023-08-29T23:11:40.824Z,16.37
2023-08-29T23:14:07.286Z,16.49
2023-08-29T23:16:33.848Z,16.39
2023-08-29T23:19:00.262Z,16.33
2023-08-29T23:21:26.659Z,16.30
2023-08-29T23:23:55.049Z,16.21
2023-08-29T23:26:21.560Z,16.17
2023-08-29T23:28:48.030Z,16.17
2023-08-29T23:31:14.452Z,16.20
2023-08-29T23:33:51.734Z,16.25
2023-08-29T23:36:18.992Z,16.23
2023-08-29T23:38:45.394Z,16.24
2023-08-29T23:41:14.366Z,16.24
2023-08-29T23:43:40.971Z,16.22
2023-08-29T23:46:07.641Z,16.26
2023-08-29T23:48:34.587Z,16.22
2023-08-29T23:51:02.065Z,16.25
2023-08-29T23:53:28.451Z,16.31
2023-08-29T23:55:54.906Z,16.20
2023-08-29T23:58:21.289Z,16.12
